sensor_id;sensor_type;location;lat;lon;timestamp;pressure;altitude;pressure_sealevel;temperature;humidity
34243;BME280;20504;43.214;27.920;2023-03-31T00:01:25;101692.41;;;8.17;100.00
34243;BME280;20504;43.214;27.920;2023-03-31T00:03:51;101671.06;;;8.24;100.00
34243;BME280;20504;43.214;27.920;2023-03-31T00:06:26;101673.63;;;8.25;100.00
34243;BME280;20504;43.214;27.920;2023-03-31T00:08:52;101686.25;;;8.17;100.00
34243;BME280;20504;43.214;27.920;2023-03-31T00:11:19;101683.53;;;8.20;100.00
34243;BME280;20504;43.214;27.920;2023-03-31T00:13:45;101681.03;;;8.15;100.00
34243;BME280;20504;43.214;27.920;2023-03-31T00:16:11;101661.03;;;8.08;100.00
34243;BME280;20504;43.214;27.920;2023-03-31T00:18:36;101667.06;;;8.12;100.00
34243;BME280;20504;43.214;27.920;2023-03-31T00:21:13;101662.19;;;8.01;100.00
34243;BME280;20504;43.214;27.920;2023-03-31T00:23:52;101659.31;;;8.07;100.00
34243;BME280;20504;43.214;27.920;2023-03-31T00:26:18;101655.88;;;8.05;100.00
34243;BME280;20504;43.214;27.920;2023-03-31T00:28:44;101655.19;;;8.00;100.00
34243;BME280;20504;43.214;27.920;2023-03-31T00:31:10;101662.88;;;8.06;100.00
34243;BME280;20504;43.214;27.920;2023-03-31T00:33:35;101652.31;;;8.06;100.00
34243;BME280;20504;43.214;27.920;2023-03-31T00:36:01;101653.34;;;8.02;100.00
34243;BME280;20504;43.214;27.920;2023-03-31T00:38:31;101647.06;;;8.05;100.00
34243;BME280;20504;43.214;27.920;2023-03-31T00:40:58;101641.84;;;8.03;100.00
34243;BME280;20504;43.214;27.920;2023-03-31T00:43:59;101633.88;;;8.05;100.00
34243;BME280;20504;43.214;27.920;2023-03-31T00:46:20;101634.94;;;7.99;100.00
34243;BME280;20504;43.214;27.920;2023-03-31T00:48:52;101631.34;;;8.02;100.00
34243;BME280;20504;43.214;27.920;2023-03-31T00:51:23;101621.94;;;7.93;100.00
34243;BME280;20504;43.214;27.920;2023-03-31T00:53:53;101622.88;;;7.92;100.00
34243;BME280;20504;43.214;27.920;2023-03-31T00:56:23;101630.53;;;8.00;100.00
34243;BME280;20504;43.214;27.920;2023-03-31T00:58:49;101616.78;;;7.90;100.00
34243;BME280;20504;43.214;27.920;2023-03-31T01:01:19;101628.75;;;8.00;100.00
34243;BME280;20504;43.214;27.920;2023-03-31T01:03:49;101622.81;;;7.94;100.00
34243;BME280;20504;43.214;27.920;2023-03-31T01:06:16;101622.56;;;8.01;100.00
34243;BME280;20504;43.214;27.920;2023-03-31T01:08:45;101602.38;;;7.99;100.00
34243;BME280;20504;43.214;27.920;2023-03-31T01:11:13;101600.19;;;7.86;100.00
34243;BME280;20504;43.214;27.920;2023-03-31T01:13:41;101603.22;;;7.99;100.00
34243;BME280;20504;43.214;27.920;2023-03-31T01:16:07;101598.53;;;7.84;100.00
34243;BME280;20504;43.214;27.920;2023-03-31T01:18:33;101611.31;;;7.95;100.00
34243;BME280;20504;43.214;27.920;2023-03-31T01:21:22;101610.75;;;7.86;100.00
34243;BME280;20504;43.214;27.920;2023-03-31T01:29:39;101588.22;;;7.76;100.00
34243;BME280;20504;43.214;27.920;2023-03-31T01:35:46;101578.50;;;7.77;100.00
34243;BME280;20504;43.214;27.920;2023-03-31T01:42:06;101577.78;;;7.73;100.00
34243;BME280;20504;43.214;27.920;2023-03-31T01:47:05;101561.56;;;7.59;100.00
34243;BME280;20504;43.214;27.920;2023-03-31T01:49:54;101558.53;;;7.70;100.00
34243;BME280;20504;43.214;27.920;2023-03-31T01:52:26;101558.66;;;7.67;100.00
34243;BME280;20504;43.214;27.920;2023-03-31T01:57:37;101552.44;;;7.68;100.00
34243;BME280;20504;43.214;27.920;2023-03-31T02:00:08;101550.72;;;7.67;100.00
34243;BME280;20504;43.214;27.920;2023-03-31T02:02:49;101543.38;;;7.75;100.00
34243;BME280;20504;43.214;27.920;2023-03-31T02:05:22;101544.53;;;7.68;100.00
34243;BME280;20504;43.214;27.920;2023-03-31T02:07:59;101543.50;;;7.72;100.00
34243;BME280;20504;43.214;27.920;2023-03-31T02:10:30;101545.16;;;7.74;100.00
34243;BME280;20504;43.214;27.920;2023-03-31T02:12:59;101526.84;;;7.70;100.00
34243;BME280;20504;43.214;27.920;2023-03-31T02:15:29;101518.88;;;7.71;100.00
34243;BME280;20504;43.214;27.920;2023-03-31T02:17:58;101528.47;;;7.74;100.00
34243;BME280;20504;43.214;27.920;2023-03-31T02:20:27;101528.69;;;7.68;100.00
34243;BME280;20504;43.214;27.920;2023-03-31T02:22:55;101528.88;;;7.62;100.00
34243;BME280;20504;43.214;27.920;2023-03-31T02:25:30;101517.25;;;7.67;100.00
34243;BME280;20504;43.214;27.920;2023-03-31T02:28:10;101516.34;;;7.68;100.00
34243;BME280;20504;43.214;27.920;2023-03-31T02:30:56;101509.53;;;7.61;100.00
34243;BME280;20504;43.214;27.920;2023-03-31T02:33:27;101486.03;;;7.55;100.00
34243;BME280;20504;43.214;27.920;2023-03-31T02:35:52;101502.41;;;7.65;100.00
34243;BME280;20504;43.214;27.920;2023-03-31T02:38:18;101499.91;;;7.60;100.00
34243;BME280;20504;43.214;27.920;2023-03-31T02:40:44;101503.25;;;7.65;100.00
34243;BME280;20504;43.214;27.920;2023-03-31T02:43:10;101488.03;;;7.72;100.00
34243;BME280;20504;43.214;27.920;2023-03-31T02:45:45;101494.91;;;7.76;100.00
34243;BME280;20504;43.214;27.920;2023-03-31T03:05:51;101476.44;;;7.76;100.00
34243;BME280;20504;43.214;27.920;2023-03-31T03:08:47;101468.50;;;7.76;100.00
34243;BME280;20504;43.214;27.920;2023-03-31T03:14:09;101470.34;;;7.74;100.00
34243;BME280;20504;43.214;27.920;2023-03-31T03:17:01;101471.09;;;7.77;100.00
34243;BME280;20504;43.214;27.920;2023-03-31T03:19:29;101464.81;;;7.81;100.00
34243;BME280;20504;43.214;27.920;2023-03-31T03:21:54;101458.59;;;7.82;100.00
34243;BME280;20504;43.214;27.920;2023-03-31T03:24:20;101458.59;;;7.82;100.00
34243;BME280;20504;43.214;27.920;2023-03-31T03:26:46;101448.50;;;7.70;100.00
34243;BME280;20504;43.214;27.920;2023-03-31T03:29:12;101451.25;;;7.67;100.00
34243;BME280;20504;43.214;27.920;2023-03-31T03:31:40;101461.09;;;7.62;100.00
34243;BME280;20504;43.214;27.920;2023-03-31T03:34:05;101454.16;;;7.59;100.00
34243;BME280;20504;43.214;27.920;2023-03-31T03:36:31;101458.53;;;7.60;100.00
34243;BME280;20504;43.214;27.920;2023-03-31T03:38:57;101454.56;;;7.72;100.00
34243;BME280;20504;43.214;27.920;2023-03-31T03:41:22;101454.63;;;7.71;100.00
34243;BME280;20504;43.214;27.920;2023-03-31T03:43:48;101454.69;;;7.69;100.00
34243;BME280;20504;43.214;27.920;2023-03-31T03:46:13;101460.03;;;7.68;100.00
34243;BME280;20504;43.214;27.920;2023-03-31T03:48:39;101459.25;;;7.66;100.00
34243;BME280;20504;43.214;27.920;2023-03-31T03:51:05;101469.38;;;7.76;100.00
34243;BME280;20504;43.214;27.920;2023-03-31T03:53:30;101464.09;;;7.76;100.00
34243;BME280;20504;43.214;27.920;2023-03-31T03:55:56;101441.31;;;7.74;100.00
34243;BME280;20504;43.214;27.920;2023-03-31T03:58:23;101451.47;;;7.84;100.00
34243;BME280;20504;43.214;27.920;2023-03-31T04:00:49;101445.75;;;7.95;100.00
34243;BME280;20504;43.214;27.920;2023-03-31T04:03:14;101446.34;;;8.03;100.00
34243;BME280;20504;43.214;27.920;2023-03-31T04:05:41;101447.31;;;8.01;100.00
34243;BME280;20504;43.214;27.920;2023-03-31T04:08:06;101424.03;;;7.88;100.00
34243;BME280;20504;43.214;27.920;2023-03-31T04:10:33;101436.56;;;8.05;100.00
34243;BME280;20504;43.214;27.920;2023-03-31T04:12:59;101417.47;;;8.20;100.00
34243;BME280;20504;43.214;27.920;2023-03-31T04:15:25;101421.28;;;8.35;100.00
34243;BME280;20504;43.214;27.920;2023-03-31T04:17:50;101427.19;;;8.42;100.00
34243;BME280;20504;43.214;27.920;2023-03-31T04:20:19;101420.72;;;8.49;100.00
34243;BME280;20504;43.214;27.920;2023-03-31T04:22:45;101413.63;;;8.49;100.00
34243;BME280;20504;43.214;27.920;2023-03-31T04:25:15;101415.28;;;8.52;100.00
34243;BME280;20504;43.214;27.920;2023-03-31T04:27:43;101416.94;;;8.33;100.00
34243;BME280;20504;43.214;27.920;2023-03-31T04:30:15;101415.75;;;8.41;100.00
34243;BME280;20504;43.214;27.920;2023-03-31T04:32:51;101410.94;;;8.51;100.00
34243;BME280;20504;43.214;27.920;2023-03-31T04:35:18;101397.84;;;8.48;100.00
34243;BME280;20504;43.214;27.920;2023-03-31T04:37:48;101398.22;;;8.81;100.00
34243;BME280;20504;43.214;27.920;2023-03-31T04:40:15;101391.53;;;8.93;100.00
34243;BME280;20504;43.214;27.920;2023-03-31T04:42:42;101399.63;;;9.08;100.00
34243;BME280;20504;43.214;27.920;2023-03-31T04:45:09;101399.16;;;9.19;100.00
34243;BME280;20504;43.214;27.920;2023-03-31T04:47:35;101391.25;;;9.38;100.00
34243;BME280;20504;43.214;27.920;2023-03-31T04:50:01;101389.69;;;9.34;100.00
34243;BME280;20504;43.214;27.920;2023-03-31T04:52:26;101388.13;;;9.49;100.00
34243;BME280;20504;43.214;27.920;2023-03-31T04:54:52;101388.53;;;9.58;100.00
34243;BME280;20504;43.214;27.920;2023-03-31T04:57:18;101378.00;;;9.57;100.00
34243;BME280;20504;43.214;27.920;2023-03-31T04:59:44;101377.44;;;9.88;100.00
34243;BME280;20504;43.214;27.920;2023-03-31T05:02:10;101353.75;;;10.02;100.00
34243;BME280;20504;43.214;27.920;2023-03-31T05:04:35;101348.16;;;10.27;100.00
34243;BME280;20504;43.214;27.920;2023-03-31T05:07:02;101348.00;;;10.30;100.00
34243;BME280;20504;43.214;27.920;2023-03-31T05:09:28;101342.13;;;10.41;100.00
34243;BME280;20504;43.214;27.920;2023-03-31T05:11:53;101328.72;;;10.44;100.00
34243;BME280;20504;43.214;27.920;2023-03-31T05:14:19;101327.41;;;10.52;100.00
34243;BME280;20504;43.214;27.920;2023-03-31T05:16:45;101328.16;;;10.37;100.00
34243;BME280;20504;43.214;27.920;2023-03-31T05:19:10;101312.34;;;10.53;100.00
34243;BME280;20504;43.214;27.920;2023-03-31T05:21:36;101300.50;;;10.76;100.00
34243;BME280;20504;43.214;27.920;2023-03-31T05:24:02;101280.44;;;10.87;100.00
34243;BME280;20504;43.214;27.920;2023-03-31T05:26:29;101291.19;;;11.02;100.00
34243;BME280;20504;43.214;27.920;2023-03-31T05:28:55;101274.28;;;10.87;100.00
34243;BME280;20504;43.214;27.920;2023-03-31T05:31:21;101287.75;;;11.00;100.00
34243;BME280;20504;43.214;27.920;2023-03-31T05:33:46;101266.06;;;10.91;100.00
34243;BME280;20504;43.214;27.920;2023-03-31T05:36:15;101270.50;;;10.91;100.00
34243;BME280;20504;43.214;27.920;2023-03-31T05:38:41;101253.94;;;11.03;100.00
34243;BME280;20504;43.214;27.920;2023-03-31T05:41:08;101253.59;;;11.25;100.00
34243;BME280;20504;43.214;27.920;2023-03-31T05:43:34;101251.63;;;11.44;100.00
34243;BME280;20504;43.214;27.920;2023-03-31T05:46:00;101240.81;;;11.47;100.00
34243;BME280;20504;43.214;27.920;2023-03-31T05:48:26;101243.63;;;11.60;100.00
34243;BME280;20504;43.214;27.920;2023-03-31T05:50:56;101238.63;;;11.70;100.00
34243;BME280;20504;43.214;27.920;2023-03-31T05:53:22;101238.31;;;11.92;100.00
34243;BME280;20504;43.214;27.920;2023-03-31T05:55:47;101234.72;;;12.07;100.00
34243;BME280;20504;43.214;27.920;2023-03-31T05:58:13;101235.13;;;12.15;100.00
34243;BME280;20504;43.214;27.920;2023-03-31T06:00:38;101241.59;;;12.11;100.00
34243;BME280;20504;43.214;27.920;2023-03-31T06:03:04;101234.03;;;12.33;100.00
34243;BME280;20504;43.214;27.920;2023-03-31T06:05:32;101224.94;;;12.52;100.00
34243;BME280;20504;43.214;27.920;2023-03-31T06:07:59;101218.25;;;12.44;100.00
34243;BME280;20504;43.214;27.920;2023-03-31T06:10:24;101211.44;;;12.55;100.00
34243;BME280;20504;43.214;27.920;2023-03-31T06:12:50;101222.84;;;12.71;100.00
34243;BME280;20504;43.214;27.920;2023-03-31T06:15:15;101210.47;;;12.56;100.00
34243;BME280;20504;43.214;27.920;2023-03-31T06:17:41;101202.56;;;12.40;100.00
34243;BME280;20504;43.214;27.920;2023-03-31T06:20:07;101205.91;;;12.72;100.00
34243;BME280;20504;43.214;27.920;2023-03-31T06:22:33;101196.31;;;12.84;100.00
34243;BME280;20504;43.214;27.920;2023-03-31T06:24:58;101192.22;;;12.78;100.00
34243;BME280;20504;43.214;27.920;2023-03-31T06:27:23;101179.09;;;12.75;100.00
34243;BME280;20504;43.214;27.920;2023-03-31T06:29:50;101177.59;;;12.71;100.00
34243;BME280;20504;43.214;27.920;2023-03-31T06:32:16;101176.53;;;12.59;100.00
34243;BME280;20504;43.214;27.920;2023-03-31T06:34:41;101166.84;;;12.72;100.00
34243;BME280;20504;43.214;27.920;2023-03-31T06:37:06;101161.38;;;13.02;100.00
34243;BME280;20504;43.214;27.920;2023-03-31T06:39:32;101162.59;;;12.97;100.00
34243;BME280;20504;43.214;27.920;2023-03-31T06:41:57;101157.66;;;13.05;100.00
34243;BME280;20504;43.214;27.920;2023-03-31T06:44:23;101138.94;;;12.92;100.00
34243;BME280;20504;43.214;27.920;2023-03-31T06:46:48;101132.16;;;13.01;100.00
34243;BME280;20504;43.214;27.920;2023-03-31T06:49:14;101134.34;;;13.09;100.00
34243;BME280;20504;43.214;27.920;2023-03-31T06:51:43;101119.31;;;13.22;100.00
34243;BME280;20504;43.214;27.920;2023-03-31T06:54:08;101112.63;;;13.15;100.00
34243;BME280;20504;43.214;27.920;2023-03-31T06:56:34;101118.69;;;13.17;100.00
34243;BME280;20504;43.214;27.920;2023-03-31T06:59:00;101115.59;;;13.37;100.00
34243;BME280;20504;43.214;27.920;2023-03-31T07:01:25;101124.88;;;13.31;100.00
34243;BME280;20504;43.214;27.920;2023-03-31T07:03:51;101133.38;;;13.10;100.00
34243;BME280;20504;43.214;27.920;2023-03-31T07:06:16;101124.03;;;13.17;100.00
34243;BME280;20504;43.214;27.920;2023-03-31T07:08:41;101116.97;;;13.30;100.00
34243;BME280;20504;43.214;27.920;2023-03-31T07:11:07;101097.78;;;13.25;100.00
34243;BME280;20504;43.214;27.920;2023-03-31T07:13:32;101094.41;;;13.09;100.00
34243;BME280;20504;43.214;27.920;2023-03-31T07:15:58;101063.41;;;13.08;100.00
34243;BME280;20504;43.214;27.920;2023-03-31T07:18:24;101039.63;;;13.31;100.00
34243;BME280;20504;43.214;27.920;2023-03-31T07:20:57;101028.25;;;13.02;100.00
34243;BME280;20504;43.214;27.920;2023-03-31T07:23:22;101018.94;;;13.22;100.00
34243;BME280;20504;43.214;27.920;2023-03-31T07:25:48;101018.28;;;13.19;100.00
34243;BME280;20504;43.214;27.920;2023-03-31T07:28:14;101003.41;;;13.29;100.00
34243;BME280;20504;43.214;27.920;2023-03-31T07:30:39;100995.63;;;13.26;100.00
34243;BME280;20504;43.214;27.920;2023-03-31T07:33:05;100999.72;;;13.17;100.00
34243;BME280;20504;43.214;27.920;2023-03-31T07:35:31;101008.47;;;13.19;100.00
34243;BME280;20504;43.214;27.920;2023-03-31T07:37:57;101020.34;;;13.28;100.00
34243;BME280;20504;43.214;27.920;2023-03-31T07:40:25;101013.34;;;13.40;100.00
34243;BME280;20504;43.214;27.920;2023-03-31T07:42:51;101043.09;;;13.19;100.00
34243;BME280;20504;43.214;27.920;2023-03-31T07:45:19;101045.63;;;13.08;100.00
34243;BME280;20504;43.214;27.920;2023-03-31T07:47:45;101006.63;;;13.07;100.00
34243;BME280;20504;43.214;27.920;2023-03-31T07:50:13;101063.72;;;13.16;100.00
34243;BME280;20504;43.214;27.920;2023-03-31T07:52:39;101063.59;;;13.31;100.00
34243;BME280;20504;43.214;27.920;2023-03-31T07:55:05;101074.50;;;13.41;100.00
34243;BME280;20504;43.214;27.920;2023-03-31T07:57:31;101093.88;;;13.16;100.00
34243;BME280;20504;43.214;27.920;2023-03-31T07:59:58;101087.06;;;13.39;100.00
34243;BME280;20504;43.214;27.920;2023-03-31T08:02:26;101107.69;;;13.62;100.00
34243;BME280;20504;43.214;27.920;2023-03-31T08:04:51;101111.84;;;13.67;100.00
34243;BME280;20504;43.214;27.920;2023-03-31T08:07:17;101143.97;;;13.38;100.00
34243;BME280;20504;43.214;27.920;2023-03-31T08:09:45;101155.78;;;13.34;100.00
34243;BME280;20504;43.214;27.920;2023-03-31T08:12:10;101159.34;;;13.47;100.00
34243;BME280;20504;43.214;27.920;2023-03-31T08:14:36;101184.53;;;13.29;100.00
34243;BME280;20504;43.214;27.920;2023-03-31T08:17:01;101199.44;;;12.90;100.00
34243;BME280;20504;43.214;27.920;2023-03-31T08:19:27;101200.47;;;13.02;100.00
34243;BME280;20504;43.214;27.920;2023-03-31T08:21:53;101177.94;;;12.93;100.00
34243;BME280;20504;43.214;27.920;2023-03-31T08:24:19;101163.94;;;13.04;100.00
34243;BME280;20504;43.214;27.920;2023-03-31T08:26:45;101132.75;;;12.65;100.00
34243;BME280;20504;43.214;27.920;2023-03-31T08:29:10;101148.03;;;12.61;100.00
34243;BME280;20504;43.214;27.920;2023-03-31T08:31:36;101132.91;;;12.62;100.00
34243;BME280;20504;43.214;27.920;2023-03-31T08:34:02;101118.31;;;12.40;100.00
34243;BME280;20504;43.214;27.920;2023-03-31T08:36:28;101083.81;;;12.25;100.00
34243;BME280;20504;43.214;27.920;2023-03-31T08:38:54;101005.69;;;11.99;100.00
34243;BME280;20504;43.214;27.920;2023-03-31T08:43:55;100757.78;;;12.22;100.00
34243;BME280;20504;43.214;27.920;2023-03-31T08:46:22;100779.06;;;11.68;100.00
34243;BME280;20504;43.214;27.920;2023-03-31T08:48:53;100790.53;;;11.42;100.00
34243;BME280;20504;43.214;27.920;2023-03-31T08:54:15;100826.19;;;11.23;100.00
34243;BME280;20504;43.214;27.920;2023-03-31T08:56:46;100833.41;;;11.21;100.00
34243;BME280;20504;43.214;27.920;2023-03-31T09:12:35;100888.19;;;11.51;100.00
34243;BME280;20504;43.214;27.920;2023-03-31T09:15:09;100915.16;;;11.16;100.00
34243;BME280;20504;43.214;27.920;2023-03-31T09:17:41;100908.38;;;11.11;100.00
34243;BME280;20504;43.214;27.920;2023-03-31T09:20:16;100900.34;;;11.12;100.00
34243;BME280;20504;43.214;27.920;2023-03-31T09:22:46;100882.16;;;11.20;100.00
34243;BME280;20504;43.214;27.920;2023-03-31T09:25:29;100875.88;;;11.21;100.00
34243;BME280;20504;43.214;27.920;2023-03-31T09:27:58;100878.31;;;10.96;100.00
34243;BME280;20504;43.214;27.920;2023-03-31T09:30:29;100872.69;;;11.16;100.00
34243;BME280;20504;43.214;27.920;2023-03-31T09:33:15;100878.63;;;11.06;100.00
34243;BME280;20504;43.214;27.920;2023-03-31T09:35:42;100882.34;;;11.17;100.00
34243;BME280;20504;43.214;27.920;2023-03-31T09:38:13;100892.19;;;11.30;100.00
34243;BME280;20504;43.214;27.920;2023-03-31T09:40:41;100914.78;;;11.37;100.00
34243;BME280;20504;43.214;27.920;2023-03-31T09:43:27;100926.72;;;11.44;100.00
34243;BME280;20504;43.214;27.920;2023-03-31T09:45:54;100931.00;;;11.46;100.00
34243;BME280;20504;43.214;27.920;2023-03-31T09:48:26;100931.19;;;11.43;100.00
34243;BME280;20504;43.214;27.920;2023-03-31T09:51:05;100967.69;;;11.26;100.00
34243;BME280;20504;43.214;27.920;2023-03-31T09:53:38;100977.91;;;11.17;100.00
34243;BME280;20504;43.214;27.920;2023-03-31T09:56:06;100989.16;;;11.07;100.00
34243;BME280;20504;43.214;27.920;2023-03-31T09:58:41;101004.00;;;10.95;100.00
34243;BME280;20504;43.214;27.920;2023-03-31T10:01:09;101009.09;;;10.84;100.00
34243;BME280;20504;43.214;27.920;2023-03-31T10:03:53;101013.81;;;10.79;100.00
34243;BME280;20504;43.214;27.920;2023-03-31T10:06:20;101031.59;;;10.77;100.00
34243;BME280;20504;43.214;27.920;2023-03-31T10:08:55;101027.22;;;10.91;100.00
34243;BME280;20504;43.214;27.920;2023-03-31T10:11:22;101044.44;;;10.53;100.00
34243;BME280;20504;43.214;27.920;2023-03-31T10:13:58;101042.16;;;10.63;100.00
34243;BME280;20504;43.214;27.920;2023-03-31T10:18:54;101045.22;;;10.55;100.00
34243;BME280;20504;43.214;27.920;2023-03-31T10:21:24;101053.34;;;10.68;100.00
34243;BME280;20504;43.214;27.920;2023-03-31T10:23:52;101041.72;;;10.70;100.00
34243;BME280;20504;43.214;27.920;2023-03-31T10:26:21;101047.59;;;10.75;100.00
34243;BME280;20504;43.214;27.920;2023-03-31T10:28:49;101042.47;;;10.88;100.00
34243;BME280;20504;43.214;27.920;2023-03-31T10:31:26;101037.91;;;10.90;100.00
34243;BME280;20504;43.214;27.920;2023-03-31T10:33:58;101032.75;;;11.03;100.00
34243;BME280;20504;43.214;27.920;2023-03-31T10:36:30;101045.34;;;10.99;100.00
34243;BME280;20504;43.214;27.920;2023-03-31T10:38:56;101041.06;;;11.27;100.00
34243;BME280;20504;43.214;27.920;2023-03-31T10:41:26;101038.66;;;11.52;100.00
34243;BME280;20504;43.214;27.920;2023-03-31T10:43:54;101032.63;;;11.64;100.00
34243;BME280;20504;43.214;27.920;2023-03-31T10:46:39;101016.72;;;11.78;100.00
34243;BME280;20504;43.214;27.920;2023-03-31T10:51:52;101016.22;;;12.15;100.00
34243;BME280;20504;43.214;27.920;2023-03-31T10:54:18;101021.31;;;12.46;100.00
34243;BME280;20504;43.214;27.920;2023-03-31T10:56:46;101015.84;;;12.89;100.00
34243;BME280;20504;43.214;27.920;2023-03-31T10:59:31;101018.72;;;12.86;100.00
34243;BME280;20504;43.214;27.920;2023-03-31T11:02:31;101012.59;;;13.11;100.00
34243;BME280;20504;43.214;27.920;2023-03-31T11:12:45;101028.91;;;13.84;100.00
34243;BME280;20504;43.214;27.920;2023-03-31T11:25:55;101010.44;;;14.56;100.00
34243;BME280;20504;43.214;27.920;2023-03-31T11:28:30;101001.75;;;14.89;100.00
34243;BME280;20504;43.214;27.920;2023-03-31T11:37:10;100996.97;;;14.57;100.00
34243;BME280;20504;43.214;27.920;2023-03-31T11:42:58;100989.75;;;14.46;100.00
34243;BME280;20504;43.214;27.920;2023-03-31T11:45:25;100981.84;;;14.45;100.00
34243;BME280;20504;43.214;27.920;2023-03-31T11:47:58;100968.34;;;14.59;100.00
34243;BME280;20504;43.214;27.920;2023-03-31T11:50:30;100966.50;;;14.36;100.00
34243;BME280;20504;43.214;27.920;2023-03-31T11:53:02;100971.28;;;14.43;100.00
34243;BME280;20504;43.214;27.920;2023-03-31T11:55:31;100953.53;;;14.18;100.00
34243;BME280;20504;43.214;27.920;2023-03-31T11:57:58;100961.78;;;14.39;100.00
34243;BME280;20504;43.214;27.920;2023-03-31T12:00:35;100947.22;;;14.56;100.00
34243;BME280;20504;43.214;27.920;2023-03-31T12:06:13;100922.97;;;15.85;100.00
34243;BME280;20504;43.214;27.920;2023-03-31T12:11:42;100914.75;;;16.63;100.00
34243;BME280;20504;43.214;27.920;2023-03-31T12:14:13;100910.09;;;16.65;100.00
34243;BME280;20504;43.214;27.920;2023-03-31T12:16:44;100900.50;;;16.74;100.00
34243;BME280;20504;43.214;27.920;2023-03-31T12:21:47;100855.88;;;17.36;100.00
34243;BME280;20504;43.214;27.920;2023-03-31T12:24:14;100834.50;;;18.05;100.00
34243;BME280;20504;43.214;27.920;2023-03-31T12:29:35;100812.31;;;17.93;100.00
34243;BME280;20504;43.214;27.920;2023-03-31T12:32:09;100808.94;;;17.91;100.00
34243;BME280;20504;43.214;27.920;2023-03-31T12:34:50;100787.78;;;17.17;100.00
34243;BME280;20504;43.214;27.920;2023-03-31T12:37:31;100796.13;;;16.31;100.00
34243;BME280;20504;43.214;27.920;2023-03-31T12:45:44;100767.75;;;16.40;100.00
34243;BME280;20504;43.214;27.920;2023-03-31T12:56:04;100761.41;;;16.41;100.00
34243;BME280;20504;43.214;27.920;2023-03-31T13:01:04;100758.50;;;16.95;100.00
34243;BME280;20504;43.214;27.920;2023-03-31T13:05:59;100744.47;;;16.61;100.00
34243;BME280;20504;43.214;27.920;2023-03-31T13:08:50;100743.41;;;16.94;100.00
34243;BME280;20504;43.214;27.920;2023-03-31T13:11:17;100732.31;;;17.08;100.00
34243;BME280;20504;43.214;27.920;2023-03-31T13:16:46;100725.97;;;17.59;100.00
34243;BME280;20504;43.214;27.920;2023-03-31T13:19:32;100718.41;;;17.74;100.00
34243;BME280;20504;43.214;27.920;2023-03-31T13:22:00;100687.88;;;17.84;100.00
34243;BME280;20504;43.214;27.920;2023-03-31T13:24:28;100707.94;;;17.80;100.00
34243;BME280;20504;43.214;27.920;2023-03-31T13:26:56;100693.81;;;17.78;100.00
34243;BME280;20504;43.214;27.920;2023-03-31T13:29:41;100681.50;;;17.66;100.00
34243;BME280;20504;43.214;27.920;2023-03-31T13:32:20;100688.41;;;17.40;100.00
34243;BME280;20504;43.214;27.920;2023-03-31T13:52:03;100646.09;;;17.92;100.00
34243;BME280;20504;43.214;27.920;2023-03-31T13:54:59;100643.25;;;18.03;100.00
34243;BME280;20504;43.214;27.920;2023-03-31T14:11:29;100522.16;;;22.01;100.00
34243;BME280;20504;43.214;27.920;2023-03-31T14:16:34;100426.47;;;25.45;100.00
34243;BME280;20504;43.214;27.920;2023-03-31T14:24:50;100110.00;;;26.16;100.00
34243;BME280;20504;43.214;27.920;2023-03-31T14:32:56;99054.47;;;28.58;100.00
34243;BME280;20504;43.214;27.920;2023-03-31T14:35:32;98841.81;;;29.17;100.00
34243;BME280;20504;43.214;27.920;2023-03-31T14:38:05;98757.19;;;30.12;100.00
34243;BME280;20504;43.214;27.920;2023-03-31T14:40:34;98157.09;;;29.96;100.00
34243;BME280;20504;43.214;27.920;2023-03-31T14:43:16;97490.38;;;29.49;100.00
34243;BME280;20504;43.214;27.920;2023-03-31T14:45:42;97578.34;;;29.65;100.00
34243;BME280;20504;43.214;27.920;2023-03-31T14:48:13;97839.06;;;29.97;100.00
34243;BME280;20504;43.214;27.920;2023-03-31T14:50:44;98138.09;;;30.93;100.00
34243;BME280;20504;43.214;27.920;2023-03-31T14:53:21;95623.72;;;30.19;100.00
34243;BME280;20504;43.214;27.920;2023-03-31T14:55:47;96260.53;;;28.53;100.00
34243;BME280;20504;43.214;27.920;2023-03-31T14:58:20;96682.13;;;27.24;100.00
34243;BME280;20504;43.214;27.920;2023-03-31T15:00:48;96508.72;;;25.91;100.00
34243;BME280;20504;43.214;27.920;2023-03-31T15:03:14;96327.41;;;25.42;100.00
34243;BME280;20504;43.214;27.920;2023-03-31T15:05:42;96513.81;;;25.55;100.00
34243;BME280;20504;43.214;27.920;2023-03-31T15:08:16;96458.66;;;24.98;100.00
34243;BME280;20504;43.214;27.920;2023-03-31T15:10:48;96262.44;;;23.90;100.00
34243;BME280;20504;43.214;27.920;2023-03-31T15:13:32;96377.69;;;23.51;100.00
34243;BME280;20504;43.214;27.920;2023-03-31T15:15:59;96375.19;;;22.56;100.00
34243;BME280;20504;43.214;27.920;2023-03-31T15:18:25;96383.59;;;22.45;100.00
34243;BME280;20504;43.214;27.920;2023-03-31T15:20:51;96548.78;;;22.57;100.00
34243;BME280;20504;43.214;27.920;2023-03-31T15:23:26;96429.81;;;22.13;100.00
34243;BME280;20504;43.214;27.920;2023-03-31T15:25:57;96019.44;;;21.75;100.00
34243;BME280;20504;43.214;27.920;2023-03-31T15:28:25;95556.16;;;21.50;100.00
34243;BME280;20504;43.214;27.920;2023-03-31T15:30:52;95133.47;;;21.62;100.00
34243;BME280;20504;43.214;27.920;2023-03-31T15:33:25;94743.31;;;21.41;100.00
34243;BME280;20504;43.214;27.920;2023-03-31T15:35:55;94434.75;;;21.09;100.00